Flight Number: AVA11113 Duration: 11:30
Departure: Bangkok Suvarnabhumi (VTBS) at 06:30 Distance: 5167 Nm
Arrival: Frankfurt am Main (EDDF) at 18:00 Equipment: B747

Weather Information
Chon Buri, Thailand (VTBS) 13-22N 100-59E 2M Feb 27, 2024 - 12:30 PM EST / 2024.02.27 1730 UTC
Wind: from the SSW (210 degrees) at 8 MPH (7 KT):0
Visibility: greater than 7 mile(s):0
Sky conditions: mostly clear Temperature: 84 F (29 C) Dew Point: 73 F (23 C) Relative Humidity: 70% Pressure (altimeter): 29.85 in. Hg (1011 hPa)
ob: VTBS 271730Z 21007KT 9999 FEW020 29/23 Q1011 NOSIG cycle: 17
Sunrise: 23:36 Sunset: 11:22 (UTC)

Frankfurt / M-Flughafen, Germany (EDDF) 50-03N 008-36E 113M Feb 27, 2024 - 12:20 PM EST / 2024.02.27 1720 UTC
Wind: from the NNE (020 degrees) at 9 MPH (8 KT):0
Visibility: greater than 7 mile(s):0 Temperature: 50 F (10 C) Dew Point: 39 F (4 C) Relative Humidity: 66% Pressure (altimeter): 29.97 in. Hg (1015 hPa)
ob: EDDF 271720Z AUTO 02008KT CAVOK 10/04 Q1015 NOSIG cycle: 17
Sunrise: 06:16 Sunset: 17:00 (UTC)

TAF:2024/02/27 18:28 TAF EDDF 271700Z 2718/2824 02010KT CAVOK BECMG 2720/2722 02005KT PROB30 TEMPO 2803/2808 2000 BCFG BECMG 2812/2814 VRB03KT

Previous Pireps for this route
Date Flightnr Aircraft Flight time Fuel used Landing rate On time
2022-05-24AVA11113B74710.57237194-253Yes
(pireps marked green are flown by you)

Route map